Time;durP1;ratioP1;P1;durP2;ratioP2;P2;SDS_P1;SDS_P2;PMS_P1;PMS_P2;Temp;Humidity;BMP_temperature;BMP_pressure;BME280_temperature;BME280_humidity;BME280_pressure;Samples;Min_cycle;Max_cycle;Signal;HPM_P1;HPM_P2
2023/11/06 00:04:22;;;;;;;3.27;0.73;;;10.60;99.90;;;;;;5072943;28;20209;-49
2023/11/06 00:06:48;;;;;;;4.53;0.80;;;10.60;99.90;;;;;;5106499;27;20195;-46
2023/11/06 00:09:16;;;;;;;4.63;0.57;;;10.60;99.90;;;;;;5101697;28;20243;-45
2023/11/06 00:11:43;;;;;;;2.13;0.70;;;10.50;99.90;;;;;;5088900;28;20217;-45
2023/11/06 00:14:09;;;;;;;1.33;0.70;;;10.50;99.90;;;;;;5107150;27;20807;-45
2023/11/06 00:16:37;;;;;;;5.73;1.10;;;10.50;99.90;;;;;;5104985;28;20655;-49
2023/11/06 00:19:05;;;;;;;3.10;0.90;;;10.50;99.90;;;;;;5080002;27;20281;-47
2023/11/06 00:21:33;;;;;;;3.93;1.00;;;10.50;99.90;;;;;;5089348;28;20736;-45
2023/11/06 00:24:00;;;;;;;4.37;1.00;;;10.40;99.90;;;;;;5102266;28;20197;-45
2023/11/06 00:26:27;;;;;;;2.00;0.70;;;10.40;99.90;;;;;;5086973;28;20193;-46
2023/11/06 00:28:56;;;;;;;5.03;0.90;;;10.40;99.90;;;;;;5101613;28;20736;-45
2023/11/06 00:31:22;;;;;;;3.80;1.07;;;10.40;99.90;;;;;;5101976;28;20263;-44
2023/11/06 00:33:51;;;;;;;7.27;1.30;;;10.30;99.90;;;;;;5103898;28;20194;-48
2023/11/06 00:36:18;;;;;;;4.77;1.17;;;10.30;99.90;;;;;;5072394;27;20335;-48
2023/11/06 00:38:47;;;;;;;4.77;1.20;;;10.30;99.90;;;;;;5102591;28;20237;-45
2023/11/06 00:41:13;;;;;;;5.23;1.03;;;10.30;99.90;;;;;;5102079;28;20197;-45
2023/11/06 00:43:40;;;;;;;8.63;1.30;;;10.30;99.90;;;;;;5087098;28;20197;-45
2023/11/06 00:46:07;;;;;;;5.17;1.40;;;10.20;99.90;;;;;;5102758;28;20727;-48
2023/11/06 00:48:34;;;;;;;6.83;1.90;;;10.20;99.90;;;;;;5100469;28;20190;-45
2023/11/06 00:51:01;;;;;;;10.03;1.70;;;10.20;99.90;;;;;;5076493;27;20198;-44
2023/11/06 00:53:28;;;;;;;4.57;1.87;;;10.30;99.90;;;;;;5099516;28;20302;-47
2023/11/06 00:55:56;;;;;;;8.83;2.17;;;10.20;99.90;;;;;;5104484;27;20224;-47
2023/11/06 00:58:23;;;;;;;10.27;2.10;;;10.20;99.90;;;;;;5092260;27;20699;-46
2023/11/06 01:00:50;;;;;;;6.83;1.97;;;10.20;99.90;;;;;;5099087;27;20186;-48
2023/11/06 01:03:17;;;;;;;6.77;1.93;;;10.20;99.90;;;;;;5091643;28;20556;-45
2023/11/06 01:05:44;;;;;;;6.43;1.67;;;10.20;99.90;;;;;;5067022;28;20333;-47
2023/11/06 01:08:10;;;;;;;8.37;1.53;;;10.20;99.90;;;;;;5093724;28;20197;-46
2023/11/06 01:10:37;;;;;;;8.77;1.87;;;10.20;99.90;;;;;;5099362;28;20194;-47
2023/11/06 01:13:05;;;;;;;8.17;2.20;;;10.20;99.90;;;;;;5103927;28;20201;-45
2023/11/06 01:15:33;;;;;;;7.97;1.93;;;10.20;99.90;;;;;;5083926;28;20949;-45
2023/11/06 01:17:59;;;;;;;6.83;1.43;;;10.20;99.90;;;;;;5101074;27;20205;-48
2023/11/06 01:20:26;;;;;;;8.37;2.30;;;10.20;99.90;;;;;;5074244;27;20194;-48
2023/11/06 01:22:53;;;;;;;7.27;1.67;;;10.10;99.90;;;;;;5098474;28;20213;-50
2023/11/06 01:25:21;;;;;;;9.97;2.00;;;10.20;99.90;;;;;;5100296;28;20213;-45
2023/11/06 01:27:48;;;;;;;14.07;2.60;;;10.10;99.90;;;;;;5101059;28;20194;-46
2023/11/06 01:30:18;;;;;;;9.27;2.10;;;10.20;99.90;;;;;;5088076;28;20193;-46
2023/11/06 01:32:45;;;;;;;10.50;1.77;;;10.20;99.90;;;;;;5104960;27;20201;-46
2023/11/06 01:35:12;;;;;;;10.70;2.13;;;10.20;99.90;;;;;;5102934;28;20216;-47
2023/11/06 01:37:39;;;;;;;7.47;1.87;;;10.20;99.90;;;;;;5071845;28;20211;-47
2023/11/06 01:40:10;;;;;;;7.57;1.70;;;10.20;99.90;;;;;;5103430;27;20193;-46
2023/11/06 01:42:37;;;;;;;5.97;2.13;;;10.20;99.90;;;;;;5099542;28;20197;-48
2023/11/06 01:45:05;;;;;;;4.83;1.50;;;10.20;99.90;;;;;;5087091;28;20213;-45
2023/11/06 01:47:34;;;;;;;5.17;1.40;;;10.20;99.90;;;;;;5099413;28;20280;-45
2023/11/06 01:50:03;;;;;;;5.83;1.60;;;10.20;99.90;;;;;;5102000;28;20194;-45
2023/11/06 01:52:31;;;;;;;6.80;1.60;;;10.20;99.90;;;;;;5070447;28;20851;-45
2023/11/06 01:54:58;;;;;;;7.33;1.77;;;10.20;99.90;;;;;;5101862;28;20690;-45
2023/11/06 01:57:26;;;;;;;4.60;1.50;;;10.10;99.90;;;;;;5098372;28;20197;-47
2023/11/06 01:59:54;;;;;;;5.63;1.50;;;10.20;99.90;;;;;;5086016;28;20220;-52
2023/11/06 02:02:23;;;;;;;2.10;1.20;;;10.20;99.90;;;;;;5096334;28;20235;-48
2023/11/06 02:04:51;;;;;;;9.07;2.20;;;10.10;99.90;;;;;;5100745;28;20209;-45
2023/11/06 02:07:18;;;;;;;6.90;1.60;;;10.10;99.90;;;;;;5086116;28;20196;-44
2023/11/06 02:09:46;;;;;;;3.63;1.27;;;10.10;99.90;;;;;;5088663;28;20185;-45
2023/11/06 02:12:13;;;;;;;3.13;1.57;;;10.10;99.90;;;;;;5104103;27;20443;-46
2023/11/06 02:14:50;;;;;;;3.47;1.80;;;10.10;99.90;;;;;;5083936;28;20214;-43
2023/11/06 02:17:17;;;;;;;4.87;2.37;;;10.10;99.90;;;;;;5099847;28;20667;-44
2023/11/06 02:19:44;;;;;;;8.23;2.10;;;10.10;99.90;;;;;;5097314;28;20841;-44
2023/11/06 02:22:15;;;;;;;7.07;2.60;;;10.10;99.90;;;;;;5101950;28;20593;-45
2023/11/06 02:24:43;;;;;;;5.43;2.33;;;10.10;99.90;;;;;;5072761;28;20206;-44
2023/11/06 02:27:10;;;;;;;5.03;2.20;;;10.00;99.90;;;;;;5102048;28;20206;-45
2023/11/06 02:29:38;;;;;;;5.20;2.90;;;10.00;99.90;;;;;;5098117;28;20201;-46
2023/11/06 02:32:05;;;;;;;6.33;2.13;;;10.10;99.90;;;;;;5085826;28;20254;-45
2023/11/06 02:34:32;;;;;;;8.20;2.13;;;10.00;99.90;;;;;;5097397;28;20810;-46
2023/11/06 02:36:59;;;;;;;5.03;2.00;;;10.10;99.90;;;;;;5100109;28;20238;-45
2023/11/06 02:39:25;;;;;;;5.33;2.60;;;10.10;99.90;;;;;;5068928;28;20266;-47
2023/11/06 02:41:54;;;;;;;3.87;2.03;;;10.10;99.90;;;;;;5100890;28;20194;-45
2023/11/06 02:44:21;;;;;;;5.53;2.10;;;10.00;99.90;;;;;;5098642;28;20220;-46
2023/11/06 02:46:47;;;;;;;4.70;2.23;;;10.00;99.90;;;;;;5083364;28;20267;-44
2023/11/06 02:49:14;;;;;;;7.83;2.53;;;10.00;99.90;;;;;;5105315;27;20247;-48
2023/11/06 02:51:41;;;;;;;7.77;2.20;;;10.00;99.90;;;;;;5099557;28;20195;-44
2023/11/06 02:54:08;;;;;;;8.50;2.60;;;10.00;99.90;;;;;;5102102;28;20194;-44
2023/11/06 02:56:35;;;;;;;5.50;2.33;;;10.00;99.90;;;;;;5073094;28;20189;-44
2023/11/06 02:59:05;;;;;;;9.30;2.10;;;10.00;99.90;;;;;;5101693;28;20246;-44
2023/11/06 03:01:32;;;;;;;4.90;2.40;;;10.00;99.90;;;;;;5083163;28;20333;-47
2023/11/06 03:04:00;;;;;;;4.60;1.90;;;10.00;99.90;;;;;;5101876;28;20189;-46
2023/11/06 03:06:28;;;;;;;3.93;2.33;;;10.00;99.90;;;;;;5098344;28;20193;-48
2023/11/06 03:08:55;;;;;;;6.90;2.13;;;10.00;99.90;;;;;;5100465;28;20185;-47
2023/11/06 03:11:22;;;;;;;4.23;2.30;;;10.00;99.90;;;;;;5071179;28;20201;-46
2023/11/06 03:13:49;;;;;;;5.87;2.00;;;9.90;99.90;;;;;;5100433;28;20193;-48
2023/11/06 03:16:18;;;;;;;7.23;2.00;;;10.00;99.90;;;;;;5092059;28;20217;-48
2023/11/06 03:18:45;;;;;;;5.73;2.30;;;10.00;99.90;;;;;;5091163;28;20209;-47
2023/11/06 03:21:12;;;;;;;4.27;2.47;;;10.00;99.90;;;;;;5099921;28;20197;-47
2023/11/06 03:23:39;;;;;;;5.03;2.23;;;10.00;99.90;;;;;;5085552;28;20209;-46
2023/11/06 03:26:06;;;;;;;2.33;1.90;;;10.00;99.90;;;;;;5072107;28;22156;-44
2023/11/06 03:28:34;;;;;;;6.17;2.60;;;9.90;99.90;;;;;;5108254;28;20197;-47
2023/11/06 03:31:01;;;;;;;6.53;2.13;;;10.00;99.90;;;;;;5100635;28;20250;-48
2023/11/06 03:33:29;;;;;;;8.17;2.90;;;9.90;99.90;;;;;;5090423;28;20333;-48
2023/11/06 03:35:56;;;;;;;8.10;2.10;;;9.90;99.90;;;;;;5100736;28;20931;-45
2023/11/06 03:38:24;;;;;;;4.97;2.53;;;9.90;99.90;;;;;;5104044;28;20243;-47
2023/11/06 03:40:51;;;;;;;5.80;2.47;;;9.80;99.90;;;;;;5100631;28;20190;-44
2023/11/06 03:43:18;;;;;;;3.63;2.27;;;9.90;99.90;;;;;;5086264;27;20200;-45
2023/11/06 03:45:45;;;;;;;6.63;2.77;;;9.80;99.90;;;;;;5103229;28;20236;-49
2023/11/06 03:48:12;;;;;;;4.10;2.67;;;9.80;99.90;;;;;;5098996;27;20277;-45
2023/11/06 03:50:43;;;;;;;4.53;2.27;;;9.80;99.90;;;;;;5102190;28;20212;-51
2023/11/06 03:53:09;;;;;;;6.23;3.33;;;9.80;99.90;;;;;;5104595;28;20255;-45
2023/11/06 03:55:36;;;;;;;3.87;2.90;;;9.70;99.90;;;;;;5104479;27;20213;-47
2023/11/06 03:58:03;;;;;;;5.30;2.63;;;9.80;99.90;;;;;;5075251;28;20920;-45
2023/11/06 04:00:30;;;;;;;4.43;2.50;;;9.70;99.90;;;;;;5105629;28;20213;-49
2023/11/06 04:02:58;;;;;;;9.40;2.90;;;9.70;99.90;;;;;;5085704;28;20202;-45
2023/11/06 04:05:26;;;;;;;4.97;2.73;;;9.70;99.90;;;;;;5097795;28;20223;-47
2023/11/06 04:07:54;;;;;;;3.50;2.17;;;9.70;99.90;;;;;;5101300;28;20964;-45
2023/11/06 04:10:21;;;;;;;4.53;2.80;;;9.70;99.90;;;;;;5105288;28;20189;-49
2023/11/06 04:12:48;;;;;;;5.67;3.23;;;9.60;99.90;;;;;;5074204;28;20288;-46
2023/11/06 04:15:15;;;;;;;4.03;2.80;;;9.60;99.90;;;;;;5105338;28;20217;-46
2023/11/06 04:17:42;;;;;;;3.60;2.63;;;9.60;99.90;;;;;;5094827;28;20194;-46
2023/11/06 04:20:10;;;;;;;3.57;2.50;;;9.50;99.90;;;;;;5097208;28;20262;-49
2023/11/06 04:22:37;;;;;;;5.37;2.70;;;9.50;99.90;;;;;;5104110;28;20189;-50
2023/11/06 04:25:06;;;;;;;6.03;2.60;;;9.40;99.90;;;;;;5102579;28;20306;-47
2023/11/06 04:27:32;;;;;;;3.83;2.50;;;9.40;99.90;;;;;;5079010;27;20722;-47
2023/11/06 04:29:59;;;;;;;6.57;2.97;;;9.40;99.90;;;;;;5101541;28;20189;-47
2023/11/06 04:32:26;;;;;;;6.03;2.47;;;9.30;99.90;;;;;;5106238;27;20218;-45
2023/11/06 04:34:53;;;;;;;5.90;2.70;;;9.30;99.90;;;;;;5084969;28;20213;-46
2023/11/06 04:37:21;;;;;;;6.67;2.73;;;9.30;99.90;;;;;;5106464;27;20194;-45
2023/11/06 04:39:48;;;;;;;4.93;2.90;;;9.30;99.90;;;;;;5101354;28;20579;-47
2023/11/06 04:42:16;;;;;;;6.07;3.03;;;9.30;99.90;;;;;;5074572;28;20197;-46
2023/11/06 04:44:43;;;;;;;3.93;3.30;;;9.30;99.90;;;;;;5105033;28;20237;-47
2023/11/06 04:47:10;;;;;;;8.07;3.17;;;9.30;99.90;;;;;;5104579;27;20225;-49
2023/11/06 04:49:36;;;;;;;6.47;2.97;;;9.20;99.90;;;;;;5088373;28;20264;-44
2023/11/06 04:52:04;;;;;;;5.33;2.97;;;9.20;99.90;;;;;;5103908;28;20201;-49
2023/11/06 04:54:30;;;;;;;4.90;3.17;;;9.20;99.90;;;;;;5104200;27;20229;-48
2023/11/06 04:56:57;;;;;;;5.40;3.33;;;9.20;99.90;;;;;;5103227;28;20193;-51
2023/11/06 04:59:25;;;;;;;4.77;3.53;;;9.20;99.90;;;;;;5074772;27;20208;-46
2023/11/06 05:01:52;;;;;;;7.20;4.13;;;9.20;99.90;;;;;;5104421;28;20193;-47
2023/11/06 05:04:19;;;;;;;5.77;3.43;;;9.10;99.90;;;;;;5087454;27;20225;-45
2023/11/06 05:06:47;;;;;;;8.00;3.90;;;9.10;99.90;;;;;;5102950;28;20223;-45
2023/11/06 05:09:14;;;;;;;3.73;3.40;;;9.10;99.90;;;;;;5096282;28;20217;-46
2023/11/06 05:11:41;;;;;;;7.33;3.80;;;9.10;99.90;;;;;;5100165;27;20213;-47
2023/11/06 05:14:08;;;;;;;3.73;3.30;;;9.10;99.90;;;;;;5072673;28;20229;-48
2023/11/06 05:16:36;;;;;;;5.70;3.50;;;9.00;99.90;;;;;;5096260;28;20181;-45
2023/11/06 05:19:03;;;;;;;4.57;2.97;;;9.00;99.90;;;;;;5103621;27;20205;-45
2023/11/06 05:21:30;;;;;;;4.10;3.50;;;9.00;99.90;;;;;;5087062;28;20734;-43
2023/11/06 05:23:57;;;;;;;5.73;3.90;;;9.00;99.90;;;;;;5101415;28;20186;-45
2023/11/06 05:26:24;;;;;;;5.37;3.57;;;9.00;99.90;;;;;;5091873;28;21627;-46
2023/11/06 05:28:51;;;;;;;4.10;3.53;;;9.00;99.90;;;;;;5063289;28;20667;-46
2023/11/06 05:31:18;;;;;;;6.13;3.60;;;9.00;99.90;;;;;;5101823;27;20212;-46
2023/11/06 05:33:46;;;;;;;6.70;3.77;;;9.00;99.90;;;;;;5098524;28;20663;-45
2023/11/06 05:36:14;;;;;;;5.37;4.20;;;9.00;99.90;;;;;;5086843;28;22737;-44
2023/11/06 05:38:41;;;;;;;6.13;4.50;;;9.00;99.90;;;;;;5098525;28;20272;-49
2023/11/06 05:41:10;;;;;;;5.83;4.63;;;9.00;99.90;;;;;;5090996;27;20221;-46
2023/11/06 05:43:37;;;;;;;5.83;4.53;;;9.00;99.90;;;;;;5096432;28;20276;-45
2023/11/06 05:46:05;;;;;;;7.30;4.70;;;9.00;99.90;;;;;;5075526;28;20919;-48
2023/11/06 05:48:32;;;;;;;8.03;4.67;;;9.00;99.90;;;;;;5102501;27;20197;-45
2023/11/06 05:51:01;;;;;;;8.93;5.10;;;9.00;99.90;;;;;;5095543;28;20249;-47
2023/11/06 05:53:28;;;;;;;9.03;5.10;;;9.10;99.90;;;;;;5088986;27;20333;-46
2023/11/06 05:55:55;;;;;;;6.33;5.20;;;9.10;99.90;;;;;;5097354;28;20296;-46
2023/11/06 05:58:22;;;;;;;8.13;5.57;;;9.10;99.90;;;;;;5093070;28;20206;-44
2023/11/06 06:00:49;;;;;;;5.93;4.77;;;9.10;99.90;;;;;;5065541;27;20209;-44
2023/11/06 06:03:16;;;;;;;8.63;5.30;;;9.10;99.90;;;;;;5100172;28;20267;-46
2023/11/06 06:05:43;;;;;;;5.63;5.13;;;9.20;99.90;;;;;;5098322;28;20217;-45
2023/11/06 06:08:12;;;;;;;5.60;4.87;;;9.20;99.90;;;;;;5086191;28;21560;-43
2023/11/06 06:10:39;;;;;;;8.03;5.47;;;9.20;99.90;;;;;;5102248;28;20204;-44
2023/11/06 06:13:06;;;;;;;6.03;5.43;;;9.20;99.90;;;;;;5092230;28;20189;-48
2023/11/06 06:15:33;;;;;;;5.37;4.87;;;9.30;99.90;;;;;;5073563;27;20235;-44
2023/11/06 06:18:01;;;;;;;7.23;5.37;;;9.30;99.90;;;;;;5098985;28;20213;-45
2023/11/06 06:20:28;;;;;;;9.83;5.93;;;9.30;99.90;;;;;;5081944;28;20209;-45
2023/11/06 06:22:55;;;;;;;9.73;5.90;;;9.30;99.90;;;;;;5103613;27;20198;-48
2023/11/06 06:25:23;;;;;;;6.93;5.33;;;9.30;99.90;;;;;;5073908;28;20229;-44
2023/11/06 06:27:50;;;;;;;7.07;5.43;;;9.30;99.90;;;;;;5093785;27;23331;-45
2023/11/06 06:30:17;;;;;;;5.53;5.03;;;9.30;99.90;;;;;;5092805;28;20688;-47
2023/11/06 06:32:44;;;;;;;8.30;5.07;;;9.40;99.90;;;;;;5077593;28;20182;-46
2023/11/06 06:35:11;;;;;;;7.73;5.60;;;9.30;99.90;;;;;;5101492;28;20341;-45
2023/11/06 06:37:37;;;;;;;8.13;5.30;;;9.40;99.90;;;;;;5098273;28;20836;-46
2023/11/06 06:40:08;;;;;;;9.13;5.60;;;9.40;99.90;;;;;;5075023;28;20229;-48
2023/11/06 06:42:36;;;;;;;10.40;5.63;;;9.50;99.90;;;;;;5089440;28;20190;-48
2023/11/06 06:45:04;;;;;;;6.37;5.30;;;9.50;99.90;;;;;;5101062;28;20213;-45
2023/11/06 06:47:31;;;;;;;6.03;5.17;;;9.50;99.90;;;;;;5071936;27;20307;-45
2023/11/06 06:49:58;;;;;;;6.20;5.07;;;9.50;99.90;;;;;;5096800;28;20189;-46
2023/11/06 06:52:25;;;;;;;11.33;5.53;;;9.50;99.90;;;;;;5077308;28;20201;-44
2023/11/06 06:54:51;;;;;;;6.97;5.40;;;9.50;99.90;;;;;;5087719;28;20209;-44
2023/11/06 06:57:18;;;;;;;6.60;5.30;;;9.50;99.90;;;;;;5094682;28;20262;-44
2023/11/06 06:59:47;;;;;;;7.20;5.57;;;9.50;99.90;;;;;;5088480;28;20221;-44
2023/11/06 07:02:13;;;;;;;10.57;5.73;;;9.50;99.90;;;;;;5068636;28;20284;-47
2023/11/06 07:04:40;;;;;;;6.80;4.83;;;9.50;99.90;;;;;;5090932;28;20221;-46
2023/11/06 07:07:07;;;;;;;5.53;4.70;;;9.50;99.90;;;;;;5100195;28;20201;-43
2023/11/06 07:09:34;;;;;;;8.13;4.83;;;9.60;99.90;;;;;;5074420;28;20189;-44
2023/11/06 07:12:02;;;;;;;5.17;4.77;;;9.60;99.90;;;;;;5085045;28;20224;-43
2023/11/06 07:14:28;;;;;;;7.17;4.40;;;9.60;99.90;;;;;;5092944;28;20225;-48
2023/11/06 07:17:02;;;;;;;5.23;4.70;;;9.60;99.90;;;;;;5078636;28;20197;-44
2023/11/06 07:19:29;;;;;;;7.50;4.93;;;9.60;99.90;;;;;;5095920;28;20206;-42
2023/11/06 07:21:56;;;;;;;8.17;4.60;;;9.70;99.90;;;;;;5098955;28;20676;-44
2023/11/06 07:24:23;;;;;;;7.30;4.43;;;9.70;99.90;;;;;;5092446;28;20270;-45
2023/11/06 07:26:50;;;;;;;4.27;3.57;;;9.70;99.90;;;;;;5085016;28;20242;-47
2023/11/06 07:29:17;;;;;;;4.77;3.80;;;9.70;99.90;;;;;;5080776;28;20213;-44
2023/11/06 07:31:45;;;;;;;4.53;3.87;;;9.70;99.90;;;;;;5095002;28;20197;-44
2023/11/06 07:34:13;;;;;;;7.17;4.47;;;9.80;99.90;;;;;;5069801;28;20193;-44
2023/11/06 07:36:39;;;;;;;4.47;3.93;;;9.80;99.90;;;;;;5099881;28;20201;-45
2023/11/06 07:39:07;;;;;;;10.10;4.00;;;9.80;99.90;;;;;;5092950;28;20206;-46
2023/11/06 07:41:34;;;;;;;7.70;4.23;;;9.90;99.90;;;;;;5076587;28;20301;-43
2023/11/06 07:44:02;;;;;;;5.63;3.93;;;9.90;99.90;;;;;;5090822;28;20201;-43
2023/11/06 07:46:29;;;;;;;4.57;4.00;;;9.90;99.90;;;;;;5084365;28;20213;-44
2023/11/06 07:48:55;;;;;;;4.20;3.80;;;9.90;99.90;;;;;;5070298;28;21095;-45
2023/11/06 07:51:24;;;;;;;6.13;4.00;;;10.00;99.90;;;;;;5087916;28;20198;-47
2023/11/06 07:53:51;;;;;;;7.97;4.07;;;10.00;99.90;;;;;;5096995;28;20217;-47
2023/11/06 07:56:18;;;;;;;7.33;4.30;;;10.00;99.90;;;;;;5069693;28;20365;-47
2023/11/06 07:58:47;;;;;;;11.53;4.17;;;10.00;99.90;;;;;;5092454;28;20205;-45
2023/11/06 08:01:14;;;;;;;7.43;4.20;;;10.00;99.90;;;;;;5076227;28;21765;-46
2023/11/06 08:03:40;;;;;;;4.40;4.00;;;10.10;99.90;;;;;;5067468;28;20202;-48
2023/11/06 08:06:08;;;;;;;6.23;4.20;;;10.10;99.90;;;;;;5085005;28;20691;-46
2023/11/06 08:08:36;;;;;;;12.57;4.30;;;10.10;99.90;;;;;;5099046;28;20197;-43
2023/11/06 08:11:03;;;;;;;4.67;4.13;;;10.10;99.90;;;;;;5081458;28;20194;-45
2023/11/06 08:13:30;;;;;;;5.97;4.30;;;10.20;99.90;;;;;;5092029;28;20254;-45
2023/11/06 08:15:57;;;;;;;3.80;3.50;;;10.20;99.90;;;;;;5092635;28;20628;-47
2023/11/06 08:18:25;;;;;;;4.57;4.17;;;10.20;99.90;;;;;;5062191;27;20909;-47
2023/11/06 08:20:52;;;;;;;7.57;4.47;;;10.20;99.90;;;;;;5099032;27;20209;-45
2023/11/06 08:23:19;;;;;;;4.43;4.07;;;10.20;99.90;;;;;;5089786;28;20818;-45
2023/11/06 08:25:47;;;;;;;7.90;5.20;;;10.20;99.90;;;;;;5104281;27;20220;-44
2023/11/06 08:28:14;;;;;;;6.47;5.20;;;10.20;99.90;;;;;;5083322;28;20206;-46
2023/11/06 08:30:41;;;;;;;4.87;4.43;;;10.30;99.90;;;;;;5096527;28;20209;-46
2023/11/06 08:33:08;;;;;;;4.20;3.80;;;10.20;99.90;;;;;;5087372;27;20258;-46
2023/11/06 08:35:35;;;;;;;8.10;4.03;;;10.20;99.90;;;;;;5079688;27;20232;-49
2023/11/06 08:38:05;;;;;;;9.73;4.70;;;10.20;99.90;;;;;;5098331;27;20257;-46
2023/11/06 08:40:33;;;;;;;5.87;4.73;;;10.30;99.90;;;;;;5101280;28;20820;-45
2023/11/06 08:43:01;;;;;;;6.33;4.20;;;10.30;99.90;;;;;;5088182;28;20202;-49
2023/11/06 08:45:28;;;;;;;4.50;4.10;;;10.30;99.90;;;;;;5097070;28;20229;-44
2023/11/06 08:47:55;;;;;;;7.10;4.73;;;10.30;99.90;;;;;;5091294;28;20205;-46
2023/11/06 08:50:22;;;;;;;6.50;4.57;;;10.40;99.90;;;;;;5062586;27;20205;-47
2023/11/06 08:52:49;;;;;;;8.87;4.97;;;10.40;99.90;;;;;;5100859;28;20270;-45
2023/11/06 08:55:16;;;;;;;5.83;4.80;;;10.40;99.90;;;;;;5090962;28;20314;-45
2023/11/06 08:57:44;;;;;;;5.70;5.07;;;10.40;99.90;;;;;;5089165;28;20594;-44
2023/11/06 09:00:14;;;;;;;6.40;4.47;;;10.50;99.90;;;;;;5091516;28;20300;-45
2023/11/06 09:02:42;;;;;;;6.33;4.90;;;10.50;99.90;;;;;;5091879;28;20204;-46
2023/11/06 09:05:09;;;;;;;8.03;4.97;;;10.60;99.90;;;;;;5091173;28;20221;-47
2023/11/06 09:07:35;;;;;;;8.00;4.30;;;10.50;99.90;;;;;;5075239;27;20222;-44
2023/11/06 09:10:02;;;;;;;5.70;4.77;;;10.50;99.90;;;;;;5092758;28;20204;-44
2023/11/06 09:12:29;;;;;;;7.07;5.03;;;10.50;99.90;;;;;;5099524;28;20202;-43
2023/11/06 09:14:57;;;;;;;7.40;4.73;;;10.50;99.90;;;;;;5083702;27;20321;-48
2023/11/06 09:17:25;;;;;;;7.00;4.97;;;10.50;99.90;;;;;;5083474;28;20194;-48
2023/11/06 09:19:52;;;;;;;7.07;4.97;;;10.50;99.90;;;;;;5100586;27;20208;-45
2023/11/06 09:22:19;;;;;;;7.47;4.50;;;10.50;99.90;;;;;;5062627;27;20249;-46
2023/11/06 09:24:46;;;;;;;5.50;5.00;;;10.50;99.90;;;;;;5098643;27;20950;-47
2023/11/06 09:27:13;;;;;;;6.73;4.70;;;10.50;99.90;;;;;;5099054;28;20712;-45
2023/11/06 09:29:39;;;;;;;9.00;5.37;;;10.50;99.90;;;;;;5081404;28;20221;-47
2023/11/06 09:32:07;;;;;;;6.83;5.13;;;10.50;99.90;;;;;;5095436;28;20194;-47
2023/11/06 09:34:36;;;;;;;7.23;5.90;;;10.60;99.90;;;;;;5088581;28;20221;-49
2023/11/06 09:37:03;;;;;;;7.10;4.97;;;10.70;99.90;;;;;;5069439;28;20236;-46
2023/11/06 09:39:30;;;;;;;7.93;5.03;;;10.70;99.90;;;;;;5091721;28;20613;-50
2023/11/06 09:41:56;;;;;;;5.93;4.50;;;10.70;99.90;;;;;;5099928;28;20943;-44
2023/11/06 09:44:23;;;;;;;9.30;4.97;;;10.80;99.90;;;;;;5086245;28;20623;-49
2023/11/06 09:46:51;;;;;;;7.63;5.60;;;10.80;99.90;;;;;;5091779;28;20201;-50
2023/11/06 09:49:26;;;;;;;4.87;4.47;;;10.90;99.90;;;;;;5090307;28;20227;-43
2023/11/06 09:51:55;;;;;;;7.00;4.50;;;10.90;99.90;;;;;;5067888;27;20329;-43
2023/11/06 09:54:24;;;;;;;8.20;4.63;;;10.90;99.90;;;;;;5094940;28;20725;-45
2023/11/06 09:56:54;;;;;;;7.00;5.13;;;10.90;99.90;;;;;;5086668;28;20193;-46
2023/11/06 09:59:22;;;;;;;6.77;4.20;;;11.00;99.90;;;;;;5098669;28;20197;-45
2023/11/06 10:01:52;;;;;;;7.00;3.87;;;10.90;99.90;;;;;;5077536;28;21285;-46
2023/11/06 10:04:20;;;;;;;7.00;4.80;;;11.00;99.90;;;;;;5091580;28;20276;-48
2023/11/06 10:06:50;;;;;;;7.50;4.00;;;11.00;99.90;;;;;;5099033;28;20290;-49
2023/11/06 10:09:22;;;;;;;8.93;4.50;;;11.00;99.90;;;;;;5067232;28;20953;-48
2023/11/06 10:11:49;;;;;;;8.73;4.20;;;11.10;99.90;;;;;;5095282;28;20316;-44
2023/11/06 10:14:16;;;;;;;6.50;4.37;;;11.10;99.90;;;;;;5096419;28;20280;-49
2023/11/06 10:16:43;;;;;;;5.47;3.93;;;11.10;99.90;;;;;;5088593;27;20201;-45
2023/11/06 10:19:12;;;;;;;5.07;4.13;;;11.20;99.90;;;;;;5081399;28;20209;-46
2023/11/06 10:21:40;;;;;;;5.63;3.83;;;11.20;99.90;;;;;;5100312;28;20217;-44
2023/11/06 10:24:09;;;;;;;6.10;3.83;;;11.20;99.90;;;;;;5069389;28;20202;-49
2023/11/06 10:26:38;;;;;;;11.47;4.30;;;11.20;99.90;;;;;;5091169;28;20282;-43
2023/11/06 10:29:10;;;;;;;8.10;3.83;;;11.20;99.90;;;;;;5095015;28;20279;-49
2023/11/06 10:31:40;;;;;;;8.27;3.73;;;11.30;99.90;;;;;;5085351;28;20193;-45
2023/11/06 10:34:27;;;;;;;5.33;4.00;;;11.30;99.90;;;;;;5090966;28;20204;-48
2023/11/06 10:37:05;;;;;;;8.90;3.97;;;11.30;99.90;;;;;;5093956;28;20205;-50
2023/11/06 10:39:32;;;;;;;8.27;3.70;;;11.20;99.90;;;;;;5069234;28;20192;-46
2023/11/06 10:42:04;;;;;;;7.43;3.30;;;11.30;99.90;;;;;;5092594;28;20221;-49
2023/11/06 10:44:34;;;;;;;7.17;3.43;;;11.30;99.90;;;;;;5096460;28;20213;-46
2023/11/06 10:47:06;;;;;;;3.83;3.30;;;11.30;99.90;;;;;;5085017;28;20201;-52
2023/11/06 10:49:35;;;;;;;3.80;2.67;;;11.30;99.90;;;;;;5090986;28;20622;-49
2023/11/06 10:52:05;;;;;;;7.40;3.10;;;11.30;99.90;;;;;;5088327;28;20201;-49
2023/11/06 10:54:32;;;;;;;5.63;3.07;;;11.40;99.90;;;;;;5066495;28;20217;-45
2023/11/06 10:57:01;;;;;;;4.50;3.07;;;11.40;99.90;;;;;;5092951;28;20193;-47
2023/11/06 10:59:32;;;;;;;5.77;3.17;;;11.40;99.90;;;;;;5087597;28;21349;-46
2023/11/06 11:01:59;;;;;;;5.47;2.70;;;11.40;99.90;;;;;;5094386;28;20749;-48
2023/11/06 11:04:29;;;;;;;5.23;3.30;;;11.40;99.90;;;;;;5079256;28;20220;-45
2023/11/06 11:06:58;;;;;;;5.07;2.30;;;11.40;99.90;;;;;;5091853;28;20733;-47
2023/11/06 11:09:25;;;;;;;5.03;2.83;;;11.40;99.90;;;;;;5069066;28;20232;-45
2023/11/06 11:11:53;;;;;;;3.90;2.97;;;11.40;99.90;;;;;;5093485;28;20185;-45
2023/11/06 11:14:20;;;;;;;5.53;3.10;;;11.40;99.90;;;;;;5094903;28;20201;-45
2023/11/06 11:16:50;;;;;;;4.33;2.90;;;11.50;99.90;;;;;;5090854;28;20262;-47
2023/11/06 11:19:21;;;;;;;5.90;2.77;;;11.50;99.90;;;;;;5081439;28;20976;-45
2023/11/06 11:22:01;;;;;;;4.17;2.90;;;11.50;99.90;;;;;;5094197;28;20224;-48
2023/11/06 11:24:50;;;;;;;2.57;2.33;;;11.50;99.90;;;;;;5061759;28;20224;-48
2023/11/06 11:27:18;;;;;;;4.90;2.90;;;11.40;99.90;;;;;;5071558;28;20306;-45
2023/11/06 11:30:04;;;;;;;4.03;2.50;;;11.40;99.90;;;;;;5090030;28;20651;-50
2023/11/06 11:32:51;;;;;;;3.53;2.40;;;11.40;99.90;;;;;;5090899;28;20193;-45
2023/11/06 11:36:01;;;;;;;6.43;2.30;;;11.30;99.90;;;;;;5091368;28;20221;-47
2023/11/06 11:38:38;;;;;;;6.10;2.13;;;11.30;99.90;;;;;;5091160;28;20217;-45
2023/11/06 11:41:15;;;;;;;4.57;2.50;;;11.20;99.90;;;;;;5060554;28;20250;-43
2023/11/06 11:43:49;;;;;;;2.47;1.80;;;11.20;99.90;;;;;;5099136;28;20575;-49
2023/11/06 11:46:55;;;;;;;3.17;2.47;;;11.20;99.90;;;;;;5096580;28;20216;-43
2023/11/06 11:49:48;;;;;;;5.40;2.00;;;11.10;99.90;;;;;;5044741;28;20209;-47
2023/11/06 11:52:44;;;;;;;4.30;2.50;;;11.10;99.90;;;;;;5093853;27;20725;-43
2023/11/06 11:55:35;;;;;;;9.70;2.13;;;11.00;99.90;;;;;;5060859;27;21096;-44
2023/11/06 11:58:07;;;;;;;2.90;2.00;;;10.90;99.90;;;;;;5099119;27;21037;-46
2023/11/06 12:00:40;;;;;;;2.43;2.23;;;10.80;99.90;;;;;;5102717;28;20240;-48
2023/11/06 12:03:12;;;;;;;6.93;2.67;;;10.80;99.90;;;;;;5095110;27;20208;-44
2023/11/06 12:05:43;;;;;;;6.33;2.13;;;10.60;99.90;;;;;;5079742;28;20619;-51
2023/11/06 12:08:17;;;;;;;4.00;2.23;;;10.60;99.90;;;;;;5083917;28;20213;-45
2023/11/06 12:10:47;;;;;;;4.93;2.00;;;10.50;99.90;;;;;;5070851;28;20537;-46
2023/11/06 12:13:21;;;;;;;5.83;2.10;;;10.50;99.90;;;;;;5087647;27;20715;-44
2023/11/06 12:15:49;;;;;;;5.60;2.20;;;10.50;99.90;;;;;;5097991;27;20614;-45
2023/11/06 12:18:27;;;;;;;7.57;2.43;;;10.50;99.90;;;;;;5089585;28;20710;-44
2023/11/06 12:21:02;;;;;;;3.47;1.60;;;10.50;99.90;;;;;;5076779;28;20851;-43
2023/11/06 12:23:34;;;;;;;7.47;1.60;;;10.50;99.90;;;;;;5098590;28;20189;-49
2023/11/06 12:26:16;;;;;;;3.03;1.60;;;10.60;99.90;;;;;;5090296;27;21004;-45
2023/11/06 12:28:47;;;;;;;4.17;1.83;;;10.70;99.90;;;;;;5072302;27;20282;-44
2023/11/06 12:31:19;;;;;;;5.23;1.80;;;10.70;99.90;;;;;;5099173;28;20202;-48
2023/11/06 12:33:46;;;;;;;5.60;2.30;;;10.80;99.90;;;;;;5087803;28;20197;-45
2023/11/06 12:36:34;;;;;;;3.27;1.60;;;10.80;99.90;;;;;;5084690;28;20217;-45
2023/11/06 12:39:01;;;;;;;3.63;2.00;;;10.90;99.90;;;;;;5092240;28;20863;-43
2023/11/06 12:41:28;;;;;;;5.97;1.73;;;11.00;99.90;;;;;;5094761;27;20217;-45
2023/11/06 12:43:55;;;;;;;5.53;1.80;;;11.00;99.90;;;;;;5070359;27;20217;-44
2023/11/06 12:46:22;;;;;;;3.20;1.80;;;11.10;99.90;;;;;;5096892;28;20306;-46
2023/11/06 12:48:51;;;;;;;4.20;1.10;;;11.20;99.90;;;;;;5077640;28;20258;-45
2023/11/06 12:51:19;;;;;;;4.77;1.30;;;11.40;99.90;;;;;;5084454;27;20724;-49
2023/11/06 12:53:47;;;;;;;3.37;1.67;;;11.40;99.90;;;;;;5095729;27;20204;-45
2023/11/06 12:56:16;;;;;;;5.63;1.50;;;11.50;99.90;;;;;;5091260;27;20605;-49
2023/11/06 12:58:43;;;;;;;7.33;1.40;;;11.60;99.90;;;;;;5069737;28;20206;-47
2023/11/06 13:01:20;;;;;;;7.23;1.70;;;11.60;99.90;;;;;;5111310;27;20193;-44